Главная страница
METAR-TAF:

METAR-TAF

Аэропорты :

Reading Regional Airport (Carl A. Spaatz Field)

Рединг, Пенсильвания, США

широта: 40-22-24N, долгота: 075-57-34W, высота над уровнем моря: 105 м

Текущие метеонаблюдения

Эта сводка был подготовлена 9 минут назад, в 01:54 UTC
Ветер 15 Узел от северно-северо-западный с порывами до 28 Узел
Температура -3°C
Влажность 33%
Давление 1022 hPa
Видимость: 16.1 км
ясное небо

METAR: KRDG 130154Z 34015G28KT 10SM CLR M03/M17 A3019 RMK AO2 PK WND 34028/0147 SLP232 T10281172

Время: 21:03 (02:03 UTC)

Прогноз

Эта сводка был подготовлена 2 часа и 25 минут назад, в 23:38 UTC
Прогноз действительный с 13-го 00 UTC до 13-го 24 UTC
Ветер 11 Узел от северно-северо-западный с порывами до 19 Узел
Видимость: 10 км
ясное небо
С 13-го 0300 UTC
Ветер 9 Узел от северно-северо-западный
Видимость: 10 км
ясное небо
С 13-го 2000 UTC
Ветер Узел от северный
Видимость: 10 км
ясное небо

TAF: KRDG 122338Z 1300/1324 33011G19KT P6SM SKC FM130300 33009KT P6SM SKC FM132000 00000KT P6SM SKC

Метеонаблюдения и прогнозы для более 4000 аэропортов (сводки METAR и TAF).

Имеющиеся станции представлены на карте желтыми и красными точками.

Чтобы увидеть название станции, наведите на нее мышь.

Затем щелкните, чтобы увидеть метеонаблюдения и метеопрогнозы.

Управление картой: чтобы увеличить масштаб, щелкните зеленые кнопки с черным крестиком; чтобы уменьшить масштаб, щелкните зеленую кнопку с тире; для просмотра соседних карт щелкайте зеленые стрелки.


METAR-TAF: